sensor_id;sensor_type;location;lat;lon;timestamp;pressure;altitude;pressure_sealevel;temperature;humidity
11444;BME280;5778;47.856;12.154;2023-02-02T00:01:18;96737.03;;;4.38;100.00
11444;BME280;5778;47.856;12.154;2023-02-02T00:03:45;96732.16;;;4.35;100.00
11444;BME280;5778;47.856;12.154;2023-02-02T00:06:14;96726.28;;;4.33;100.00
11444;BME280;5778;47.856;12.154;2023-02-02T00:08:44;96745.09;;;4.30;100.00
11444;BME280;5778;47.856;12.154;2023-02-02T00:11:11;96728.50;;;4.30;100.00
11444;BME280;5778;47.856;12.154;2023-02-02T00:13:38;96734.78;;;4.29;100.00
11444;BME280;5778;47.856;12.154;2023-02-02T00:19:18;96724.66;;;4.26;100.00
11444;BME280;5778;47.856;12.154;2023-02-02T00:21:47;96715.34;;;4.23;100.00
11444;BME280;5778;47.856;12.154;2023-02-02T00:24:16;96702.59;;;4.20;100.00
11444;BME280;5778;47.856;12.154;2023-02-02T00:26:46;96734.78;;;4.22;100.00
11444;BME280;5778;47.856;12.154;2023-02-02T00:29:14;96713.31;;;4.19;100.00
11444;BME280;5778;47.856;12.154;2023-02-02T00:31:42;96717.16;;;4.16;100.00
11444;BME280;5778;47.856;12.154;2023-02-02T00:34:11;96711.09;;;4.16;100.00
11444;BME280;5778;47.856;12.154;2023-02-02T00:36:39;96710.28;;;4.22;100.00
11444;BME280;5778;47.856;12.154;2023-02-02T00:39:07;96711.09;;;4.22;100.00
11444;BME280;5778;47.856;12.154;2023-02-02T00:41:37;96694.88;;;4.25;100.00
11444;BME280;5778;47.856;12.154;2023-02-02T00:44:04;96706.44;;;4.24;100.00
11444;BME280;5778;47.856;12.154;2023-02-02T00:46:49;96704.44;;;4.20;100.00
11444;BME280;5778;47.856;12.154;2023-02-02T00:49:16;96693.47;;;4.23;100.00
11444;BME280;5778;47.856;12.154;2023-02-02T00:51:43;96711.31;;;4.21;100.00
11444;BME280;5778;47.856;12.154;2023-02-02T00:54:10;96697.94;;;4.22;100.00
11444;BME280;5778;47.856;12.154;2023-02-02T00:56:41;96706.22;;;4.19;100.00
11444;BME280;5778;47.856;12.154;2023-02-02T00:59:10;96705.41;;;4.19;100.00
11444;BME280;5778;47.856;12.154;2023-02-02T01:01:37;96701.16;;;4.18;100.00
11444;BME280;5778;47.856;12.154;2023-02-02T01:04:05;96688.63;;;4.20;100.00
11444;BME280;5778;47.856;12.154;2023-02-02T01:06:33;96687.63;;;4.21;100.00
11444;BME280;5778;47.856;12.154;2023-02-02T01:09:00;96686.59;;;4.22;100.00
11444;BME280;5778;47.856;12.154;2023-02-02T01:11:29;96735.78;;;4.28;100.00
11444;BME280;5778;47.856;12.154;2023-02-02T01:13:58;96700.56;;;4.29;100.00
11444;BME280;5778;47.856;12.154;2023-02-02T01:16:25;96697.53;;;4.32;100.00
11444;BME280;5778;47.856;12.154;2023-02-02T01:18:53;96688.41;;;4.34;100.00
11444;BME280;5778;47.856;12.154;2023-02-02T01:21:21;96697.94;;;4.42;100.00
11444;BME280;5778;47.856;12.154;2023-02-02T01:23:49;96686.38;;;4.43;100.00
11444;BME280;5778;47.856;12.154;2023-02-02T01:26:17;96699.53;;;4.43;100.00
11444;BME280;5778;47.856;12.154;2023-02-02T01:28:45;96701.75;;;4.46;100.00
11444;BME280;5778;47.856;12.154;2023-02-02T01:31:17;96712.09;;;4.47;100.00
11444;BME280;5778;47.856;12.154;2023-02-02T01:33:46;96690.22;;;4.47;100.00
11444;BME280;5778;47.856;12.154;2023-02-02T01:36:15;96715.16;;;4.44;100.00
11444;BME280;5778;47.856;12.154;2023-02-02T01:38:43;96696.28;;;4.41;100.00
11444;BME280;5778;47.856;12.154;2023-02-02T01:41:12;96729.91;;;4.39;100.00
11444;BME280;5778;47.856;12.154;2023-02-02T01:43:53;96706.66;;;4.36;100.00
11444;BME280;5778;47.856;12.154;2023-02-02T01:46:25;96710.69;;;4.32;100.00
11444;BME280;5778;47.856;12.154;2023-02-02T01:48:58;96713.13;;;4.27;100.00
11444;BME280;5778;47.856;12.154;2023-02-02T01:51:34;96688.59;;;4.26;100.00
11444;BME280;5778;47.856;12.154;2023-02-02T01:54:05;96705.41;;;4.25;100.00
11444;BME280;5778;47.856;12.154;2023-02-02T01:56:39;96684.16;;;4.27;100.00
11444;BME280;5778;47.856;12.154;2023-02-02T01:59:10;96700.97;;;4.26;100.00
11444;BME280;5778;47.856;12.154;2023-02-02T02:01:40;96687.00;;;4.32;100.00
11444;BME280;5778;47.856;12.154;2023-02-02T02:04:09;96674.63;;;4.32;100.00
11444;BME280;5778;47.856;12.154;2023-02-02T02:06:37;96677.47;;;4.37;100.00
11444;BME280;5778;47.856;12.154;2023-02-02T02:09:06;96685.34;;;4.37;100.00
11444;BME280;5778;47.856;12.154;2023-02-02T02:11:35;96682.31;;;4.34;100.00
11444;BME280;5778;47.856;12.154;2023-02-02T02:14:05;96684.13;;;4.40;100.00
11444;BME280;5778;47.856;12.154;2023-02-02T02:17:08;96680.47;;;4.41;100.00
11444;BME280;5778;47.856;12.154;2023-02-02T02:20:09;96664.28;;;4.37;100.00
11444;BME280;5778;47.856;12.154;2023-02-02T02:23:17;96661.06;;;4.35;100.00
11444;BME280;5778;47.856;12.154;2023-02-02T02:26:33;96666.34;;;4.42;100.00
11444;BME280;5778;47.856;12.154;2023-02-02T02:35:25;96653.72;;;4.57;100.00
11444;BME280;5778;47.856;12.154;2023-02-02T02:38:03;96647.03;;;4.61;100.00
11444;BME280;5778;47.856;12.154;2023-02-02T02:40:38;96647.41;;;4.64;100.00
11444;BME280;5778;47.856;12.154;2023-02-02T02:43:14;96654.72;;;4.69;100.00
11444;BME280;5778;47.856;12.154;2023-02-02T02:45:43;96644.78;;;4.71;100.00
11444;BME280;5778;47.856;12.154;2023-02-02T02:48:16;96671.31;;;4.69;100.00
11444;BME280;5778;47.856;12.154;2023-02-02T02:50:44;96638.91;;;4.69;100.00
11444;BME280;5778;47.856;12.154;2023-02-02T02:53:15;96618.03;;;4.74;100.00
11444;BME280;5778;47.856;12.154;2023-02-02T02:55:48;96647.81;;;4.74;100.00
11444;BME280;5778;47.856;12.154;2023-02-02T02:58:25;96637.66;;;4.78;100.00
11444;BME280;5778;47.856;12.154;2023-02-02T03:01:07;96639.88;;;4.81;100.00
11444;BME280;5778;47.856;12.154;2023-02-02T03:03:51;96637.06;;;4.82;100.00
11444;BME280;5778;47.856;12.154;2023-02-02T03:06:22;96681.66;;;4.77;100.00
11444;BME280;5778;47.856;12.154;2023-02-02T03:08:59;96632.00;;;4.74;100.00
11444;BME280;5778;47.856;12.154;2023-02-02T03:11:29;96637.47;;;4.73;100.00
11444;BME280;5778;47.856;12.154;2023-02-02T03:13:57;96652.69;;;4.71;100.00
11444;BME280;5778;47.856;12.154;2023-02-02T03:16:26;96648.81;;;4.73;100.00
11444;BME280;5778;47.856;12.154;2023-02-02T03:18:58;96653.91;;;4.75;100.00
11444;BME280;5778;47.856;12.154;2023-02-02T03:21:25;96656.09;;;4.78;100.00
11444;BME280;5778;47.856;12.154;2023-02-02T03:23:52;96634.63;;;4.74;100.00
11444;BME280;5778;47.856;12.154;2023-02-02T03:26:26;96630.97;;;4.82;100.00
11444;BME280;5778;47.856;12.154;2023-02-02T03:28:54;96635.41;;;4.81;100.00
11444;BME280;5778;47.856;12.154;2023-02-02T03:31:24;96641.91;;;4.79;100.00
11444;BME280;5778;47.856;12.154;2023-02-02T03:33:53;96643.53;;;4.80;100.00
11444;BME280;5778;47.856;12.154;2023-02-02T03:36:22;96625.69;;;4.82;100.00
11444;BME280;5778;47.856;12.154;2023-02-02T03:38:49;96628.06;;;4.90;100.00
11444;BME280;5778;47.856;12.154;2023-02-02T03:41:16;96646.13;;;4.93;100.00
11444;BME280;5778;47.856;12.154;2023-02-02T03:43:44;96630.31;;;4.93;100.00
11444;BME280;5778;47.856;12.154;2023-02-02T03:46:11;96648.75;;;4.93;100.00
11444;BME280;5778;47.856;12.154;2023-02-02T03:48:38;96637.19;;;4.94;100.00
11444;BME280;5778;47.856;12.154;2023-02-02T03:51:07;96680.56;;;4.98;100.00
11444;BME280;5778;47.856;12.154;2023-02-02T03:53:41;96646.31;;;4.98;100.00
11444;BME280;5778;47.856;12.154;2023-02-02T03:56:14;96673.09;;;4.88;100.00
11444;BME280;5778;47.856;12.154;2023-02-02T03:58:41;96653.66;;;4.76;100.00
11444;BME280;5778;47.856;12.154;2023-02-02T04:01:13;96685.91;;;4.72;100.00
11444;BME280;5778;47.856;12.154;2023-02-02T04:03:42;96670.28;;;4.77;100.00
11444;BME280;5778;47.856;12.154;2023-02-02T04:06:10;96676.38;;;4.77;100.00
11444;BME280;5778;47.856;12.154;2023-02-02T04:08:46;96659.34;;;4.80;100.00
11444;BME280;5778;47.856;12.154;2023-02-02T04:11:14;96667.47;;;4.78;100.00
11444;BME280;5778;47.856;12.154;2023-02-02T04:13:43;96666.88;;;4.70;100.00
11444;BME280;5778;47.856;12.154;2023-02-02T04:16:11;96676.00;;;4.61;100.00
11444;BME280;5778;47.856;12.154;2023-02-02T04:18:39;96669.13;;;4.53;100.00
11444;BME280;5778;47.856;12.154;2023-02-02T04:21:07;96660.63;;;4.51;100.00
11444;BME280;5778;47.856;12.154;2023-02-02T04:23:34;96662.88;;;4.48;100.00
11444;BME280;5778;47.856;12.154;2023-02-02T04:26:03;96667.53;;;4.46;100.00
11444;BME280;5778;47.856;12.154;2023-02-02T04:28:33;96669.75;;;4.49;100.00
11444;BME280;5778;47.856;12.154;2023-02-02T04:30:59;96671.78;;;4.47;100.00
11444;BME280;5778;47.856;12.154;2023-02-02T04:33:27;96666.50;;;4.53;100.00
11444;BME280;5778;47.856;12.154;2023-02-02T04:35:54;96671.56;;;4.55;100.00
11444;BME280;5778;47.856;12.154;2023-02-02T04:38:22;96672.56;;;4.60;100.00
11444;BME280;5778;47.856;12.154;2023-02-02T04:40:49;96679.25;;;4.63;100.00
11444;BME280;5778;47.856;12.154;2023-02-02T04:43:24;96684.69;;;4.68;100.00
11444;BME280;5778;47.856;12.154;2023-02-02T04:45:54;96681.25;;;4.67;100.00
11444;BME280;5778;47.856;12.154;2023-02-02T04:48:21;96670.88;;;4.79;100.00
11444;BME280;5778;47.856;12.154;2023-02-02T04:50:49;96683.66;;;4.82;100.00
11444;BME280;5778;47.856;12.154;2023-02-02T04:53:19;96670.88;;;4.85;100.00
11444;BME280;5778;47.856;12.154;2023-02-02T04:55:47;96666.00;;;4.89;100.00
11444;BME280;5778;47.856;12.154;2023-02-02T04:58:14;96680.38;;;4.93;100.00
11444;BME280;5778;47.856;12.154;2023-02-02T05:00:42;96685.25;;;4.96;100.00
11444;BME280;5778;47.856;12.154;2023-02-02T05:03:10;96679.97;;;4.96;100.00
11444;BME280;5778;47.856;12.154;2023-02-02T05:05:37;96673.88;;;5.02;100.00
11444;BME280;5778;47.856;12.154;2023-02-02T05:08:06;96682.94;;;5.06;100.00
11444;BME280;5778;47.856;12.154;2023-02-02T05:10:39;96701.41;;;5.06;100.00
11444;BME280;5778;47.856;12.154;2023-02-02T05:13:06;96705.69;;;5.00;100.00
11444;BME280;5778;47.856;12.154;2023-02-02T05:15:36;96699.00;;;4.98;100.00
11444;BME280;5778;47.856;12.154;2023-02-02T05:18:05;96696.38;;;4.98;100.00
11444;BME280;5778;47.856;12.154;2023-02-02T05:20:32;96691.69;;;5.00;100.00
11444;BME280;5778;47.856;12.154;2023-02-02T05:23:01;96691.69;;;5.00;100.00
11444;BME280;5778;47.856;12.154;2023-02-02T05:25:29;96677.91;;;5.04;100.00
11444;BME280;5778;47.856;12.154;2023-02-02T05:27:56;96672.63;;;5.04;100.00
11444;BME280;5778;47.856;12.154;2023-02-02T05:30:23;96706.47;;;5.14;100.00
11444;BME280;5778;47.856;12.154;2023-02-02T05:32:52;96699.31;;;5.21;100.00
11444;BME280;5778;47.856;12.154;2023-02-02T05:35:23;96684.13;;;5.23;100.00
11444;BME280;5778;47.856;12.154;2023-02-02T05:37:50;96688.00;;;5.20;100.00
11444;BME280;5778;47.856;12.154;2023-02-02T05:40:20;96687.16;;;5.20;100.00
11444;BME280;5778;47.856;12.154;2023-02-02T05:42:47;96700.16;;;5.15;100.00
11444;BME280;5778;47.856;12.154;2023-02-02T05:45:15;96698.16;;;5.10;100.00
11444;BME280;5778;47.856;12.154;2023-02-02T05:47:43;96696.13;;;5.06;100.00
11444;BME280;5778;47.856;12.154;2023-02-02T05:50:11;96697.16;;;5.05;100.00
11444;BME280;5778;47.856;12.154;2023-02-02T05:52:42;96707.09;;;5.03;100.00
11444;BME280;5778;47.856;12.154;2023-02-02T05:55:10;96697.19;;;4.98;100.00
11444;BME280;5778;47.856;12.154;2023-02-02T05:57:38;96721.31;;;4.95;100.00
11444;BME280;5778;47.856;12.154;2023-02-02T06:00:08;96719.31;;;4.91;100.00
11444;BME280;5778;47.856;12.154;2023-02-02T06:02:39;96731.47;;;4.85;100.00
11444;BME280;5778;47.856;12.154;2023-02-02T06:05:08;96715.91;;;4.77;100.00
11444;BME280;5778;47.856;12.154;2023-02-02T06:07:36;96722.19;;;4.70;100.00
11444;BME280;5778;47.856;12.154;2023-02-02T06:10:06;96724.44;;;4.60;100.00
11444;BME280;5778;47.856;12.154;2023-02-02T06:12:33;96725.06;;;4.55;100.00
11444;BME280;5778;47.856;12.154;2023-02-02T06:15:00;96718.38;;;4.53;100.00
11444;BME280;5778;47.856;12.154;2023-02-02T06:17:28;96718.78;;;4.56;100.00
11444;BME280;5778;47.856;12.154;2023-02-02T06:19:55;96725.44;;;4.52;100.00
11444;BME280;5778;47.856;12.154;2023-02-02T06:22:23;96753.00;;;4.50;100.00
11444;BME280;5778;47.856;12.154;2023-02-02T06:24:50;96735.38;;;4.50;100.00
11444;BME280;5778;47.856;12.154;2023-02-02T06:27:20;96727.09;;;4.47;100.00
11444;BME280;5778;47.856;12.154;2023-02-02T06:29:48;96731.34;;;4.48;100.00
11444;BME280;5778;47.856;12.154;2023-02-02T06:32:15;96727.09;;;4.47;100.00
11444;BME280;5778;47.856;12.154;2023-02-02T06:34:43;96743.69;;;4.47;100.00
11444;BME280;5778;47.856;12.154;2023-02-02T06:37:10;96732.13;;;4.48;100.00
11444;BME280;5778;47.856;12.154;2023-02-02T06:39:37;96729.72;;;4.47;100.00
11444;BME280;5778;47.856;12.154;2023-02-02T06:42:05;96715.53;;;4.48;100.00
11444;BME280;5778;47.856;12.154;2023-02-02T06:44:33;96733.97;;;4.48;100.00
11444;BME280;5778;47.856;12.154;2023-02-02T06:47:01;96751.78;;;4.46;100.00
11444;BME280;5778;47.856;12.154;2023-02-02T06:49:28;96740.03;;;4.55;100.00
11444;BME280;5778;47.856;12.154;2023-02-02T06:51:55;96752.19;;;4.56;100.00
11444;BME280;5778;47.856;12.154;2023-02-02T06:54:23;96761.09;;;4.55;100.00
11444;BME280;5778;47.856;12.154;2023-02-02T06:56:50;96759.09;;;4.50;100.00
11444;BME280;5778;47.856;12.154;2023-02-02T06:59:17;96758.47;;;4.48;100.00
11444;BME280;5778;47.856;12.154;2023-02-02T07:01:49;96759.09;;;4.44;100.00
11444;BME280;5778;47.856;12.154;2023-02-02T07:04:16;96769.63;;;4.44;100.00
11444;BME280;5778;47.856;12.154;2023-02-02T07:06:44;96763.53;;;4.43;100.00
11444;BME280;5778;47.856;12.154;2023-02-02T07:09:12;96747.72;;;4.50;100.00
11444;BME280;5778;47.856;12.154;2023-02-02T07:11:39;96765.16;;;4.51;100.00
11444;BME280;5778;47.856;12.154;2023-02-02T07:14:06;96766.16;;;4.56;100.00
11444;BME280;5778;47.856;12.154;2023-02-02T07:16:34;96766.78;;;4.65;100.00
11444;BME280;5778;47.856;12.154;2023-02-02T07:19:03;96755.03;;;4.74;100.00
11444;BME280;5778;47.856;12.154;2023-02-02T07:21:30;96770.81;;;4.74;100.00
11444;BME280;5778;47.856;12.154;2023-02-02T07:24:00;96763.50;;;4.76;100.00
11444;BME280;5778;47.856;12.154;2023-02-02T07:26:27;96756.63;;;4.75;100.00
11444;BME280;5778;47.856;12.154;2023-02-02T07:28:54;96762.88;;;4.80;100.00
11444;BME280;5778;47.856;12.154;2023-02-02T07:31:24;96782.94;;;4.88;100.00
11444;BME280;5778;47.856;12.154;2023-02-02T07:33:51;96778.28;;;4.90;100.00
11444;BME280;5778;47.856;12.154;2023-02-02T07:36:46;96756.19;;;4.91;100.00
11444;BME280;5778;47.856;12.154;2023-02-02T07:39:14;96772.41;;;4.94;100.00
11444;BME280;5778;47.856;12.154;2023-02-02T07:41:41;96774.59;;;4.97;100.00
11444;BME280;5778;47.856;12.154;2023-02-02T07:44:21;96783.34;;;4.98;100.00
11444;BME280;5778;47.856;12.154;2023-02-02T07:46:49;96781.72;;;4.97;100.00
11444;BME280;5778;47.856;12.154;2023-02-02T07:49:17;96784.97;;;4.99;100.00
11444;BME280;5778;47.856;12.154;2023-02-02T07:51:46;96787.97;;;5.02;100.00
11444;BME280;5778;47.856;12.154;2023-02-02T07:54:14;96765.88;;;5.03;100.00
11444;BME280;5778;47.856;12.154;2023-02-02T07:56:41;96801.56;;;5.06;100.00
11444;BME280;5778;47.856;12.154;2023-02-02T07:59:08;96779.47;;;5.07;100.00
11444;BME280;5778;47.856;12.154;2023-02-02T08:01:36;96778.47;;;5.08;100.00
11444;BME280;5778;47.856;12.154;2023-02-02T08:04:04;96781.47;;;5.11;100.00
11444;BME280;5778;47.856;12.154;2023-02-02T08:06:34;96794.47;;;5.13;100.00
11444;BME280;5778;47.856;12.154;2023-02-02T08:09:05;96777.44;;;5.15;100.00
11444;BME280;5778;47.856;12.154;2023-02-02T08:11:34;96788.56;;;5.17;100.00
11444;BME280;5778;47.856;12.154;2023-02-02T08:14:02;96795.06;;;5.15;100.00
11444;BME280;5778;47.856;12.154;2023-02-02T08:16:31;96789.78;;;5.15;100.00
11444;BME280;5778;47.856;12.154;2023-02-02T08:18:59;96801.34;;;5.14;100.00
11444;BME280;5778;47.856;12.154;2023-02-02T08:21:27;96798.13;;;5.12;100.00
11444;BME280;5778;47.856;12.154;2023-02-02T08:23:55;96792.84;;;5.12;100.00
11444;BME280;5778;47.856;12.154;2023-02-02T08:26:26;96820.44;;;5.09;100.00
11444;BME280;5778;47.856;12.154;2023-02-02T08:28:55;96805.41;;;5.10;100.00
11444;BME280;5778;47.856;12.154;2023-02-02T08:31:25;96805.00;;;5.06;100.00
11444;BME280;5778;47.856;12.154;2023-02-02T08:33:54;96817.78;;;5.03;100.00
11444;BME280;5778;47.856;12.154;2023-02-02T08:36:25;96833.63;;;5.03;100.00
11444;BME280;5778;47.856;12.154;2023-02-02T08:38:53;96830.59;;;4.99;100.00
11444;BME280;5778;47.856;12.154;2023-02-02T08:41:21;96826.53;;;4.97;100.00
11444;BME280;5778;47.856;12.154;2023-02-02T08:43:51;96833.22;;;4.99;100.00
11444;BME280;5778;47.856;12.154;2023-02-02T08:46:19;96848.19;;;4.99;100.00
11444;BME280;5778;47.856;12.154;2023-02-02T08:48:47;96828.53;;;4.95;100.00
11444;BME280;5778;47.856;12.154;2023-02-02T08:51:16;96832.81;;;4.96;100.00
11444;BME280;5778;47.856;12.154;2023-02-02T08:53:46;96843.34;;;4.96;100.00
11444;BME280;5778;47.856;12.154;2023-02-02T08:56:14;96839.91;;;4.95;100.00
11444;BME280;5778;47.856;12.154;2023-02-02T08:58:44;96860.78;;;4.90;100.00
11444;BME280;5778;47.856;12.154;2023-02-02T09:01:15;96847.81;;;4.89;100.00
11444;BME280;5778;47.856;12.154;2023-02-02T09:03:44;96854.69;;;4.90;100.00
11444;BME280;5778;47.856;12.154;2023-02-02T09:06:13;96854.09;;;4.88;100.00
11444;BME280;5778;47.856;12.154;2023-02-02T09:08:41;96861.00;;;4.82;100.00
11444;BME280;5778;47.856;12.154;2023-02-02T09:11:10;96860.78;;;4.84;100.00
11444;BME280;5778;47.856;12.154;2023-02-02T09:13:38;96850.22;;;4.84;100.00
11444;BME280;5778;47.856;12.154;2023-02-02T09:16:07;96851.66;;;4.86;100.00
11444;BME280;5778;47.856;12.154;2023-02-02T09:18:36;96850.63;;;4.94;100.00
11444;BME280;5778;47.856;12.154;2023-02-02T09:21:05;96843.75;;;4.93;100.00
11444;BME280;5778;47.856;12.154;2023-02-02T09:23:35;96848.19;;;4.99;100.00
11444;BME280;5778;47.856;12.154;2023-02-02T09:26:10;96856.72;;;5.01;100.00
11444;BME280;5778;47.856;12.154;2023-02-02T09:28:39;96851.03;;;5.04;100.00
11444;BME280;5778;47.856;12.154;2023-02-02T09:31:09;96859.53;;;5.06;100.00
11444;BME280;5778;47.856;12.154;2023-02-02T09:33:39;96858.31;;;5.08;100.00
11444;BME280;5778;47.856;12.154;2023-02-02T09:36:08;96861.97;;;5.14;100.00
11444;BME280;5778;47.856;12.154;2023-02-02T09:38:36;96854.06;;;5.20;100.00
11444;BME280;5778;47.856;12.154;2023-02-02T09:41:18;96864.63;;;5.20;100.00
11444;BME280;5778;47.856;12.154;2023-02-02T09:43:55;96852.22;;;5.27;100.00
11444;BME280;5778;47.856;12.154;2023-02-02T09:46:32;96855.84;;;5.33;100.00
11444;BME280;5778;47.856;12.154;2023-02-02T09:49:08;96849.56;;;5.40;100.00
11444;BME280;5778;47.856;12.154;2023-02-02T09:51:40;96861.50;;;5.43;100.00
11444;BME280;5778;47.856;12.154;2023-02-02T09:54:16;96859.47;;;5.51;100.00
11444;BME280;5778;47.856;12.154;2023-02-02T09:56:46;96872.06;;;5.56;100.00
11444;BME280;5778;47.856;12.154;2023-02-02T09:59:17;96862.69;;;5.60;100.00
11444;BME280;5778;47.856;12.154;2023-02-02T10:01:50;96871.63;;;5.59;100.00
11444;BME280;5778;47.856;12.154;2023-02-02T10:04:24;96859.63;;;5.63;100.00
11444;BME280;5778;47.856;12.154;2023-02-02T10:06:55;96869.75;;;5.66;100.00
11444;BME280;5778;47.856;12.154;2023-02-02T10:09:28;96856.56;;;5.66;100.00
11444;BME280;5778;47.856;12.154;2023-02-02T10:12:00;96850.50;;;5.65;100.00
11444;BME280;5778;47.856;12.154;2023-02-02T10:14:33;96862.03;;;5.71;100.00
11444;BME280;5778;47.856;12.154;2023-02-02T10:17:14;96843.16;;;5.74;100.00
11444;BME280;5778;47.856;12.154;2023-02-02T10:19:47;96851.88;;;5.81;100.00
11444;BME280;5778;47.856;12.154;2023-02-02T10:22:19;96861.84;;;5.72;100.00
11444;BME280;5778;47.856;12.154;2023-02-02T10:24:49;96858.19;;;5.80;100.00
11444;BME280;5778;47.856;12.154;2023-02-02T10:27:25;96851.47;;;5.77;100.00
11444;BME280;5778;47.856;12.154;2023-02-02T10:30:00;96846.78;;;5.86;100.00
11444;BME280;5778;47.856;12.154;2023-02-02T10:32:31;96857.34;;;5.79;100.00
11444;BME280;5778;47.856;12.154;2023-02-02T10:35:14;96857.97;;;5.75;100.00
11444;BME280;5778;47.856;12.154;2023-02-02T10:37:48;96851.69;;;5.82;100.00
11444;BME280;5778;47.856;12.154;2023-02-02T10:40:32;96888.41;;;5.71;100.00
11444;BME280;5778;47.856;12.154;2023-02-02T10:43:29;96850.50;;;5.72;100.00
11444;BME280;5778;47.856;12.154;2023-02-02T10:46:16;96859.63;;;5.69;100.00
11444;BME280;5778;47.856;12.154;2023-02-02T10:48:45;96849.88;;;5.70;100.00
11444;BME280;5778;47.856;12.154;2023-02-02T10:51:20;96859.03;;;5.61;100.00
11444;BME280;5778;47.856;12.154;2023-02-02T10:53:50;96848.91;;;5.58;100.00
11444;BME280;5778;47.856;12.154;2023-02-02T10:56:21;96832.88;;;5.53;100.00
11444;BME280;5778;47.856;12.154;2023-02-02T10:58:56;96851.34;;;5.53;100.00
11444;BME280;5778;47.856;12.154;2023-02-02T11:01:24;96835.13;;;5.49;100.00
11444;BME280;5778;47.856;12.154;2023-02-02T11:03:51;96844.25;;;5.47;100.00
11444;BME280;5778;47.856;12.154;2023-02-02T11:06:40;96856.03;;;5.44;100.00
11444;BME280;5778;47.856;12.154;2023-02-02T11:09:18;96850.97;;;5.36;100.00
11444;BME280;5778;47.856;12.154;2023-02-02T11:11:49;96845.50;;;5.38;100.00
11444;BME280;5778;47.856;12.154;2023-02-02T11:14:24;96837.59;;;5.38;100.00
11444;BME280;5778;47.856;12.154;2023-02-02T11:17:00;96837.97;;;5.41;100.00
11444;BME280;5778;47.856;12.154;2023-02-02T11:19:30;96858.09;;;5.42;100.00
11444;BME280;5778;47.856;12.154;2023-02-02T11:22:00;96844.84;;;5.49;100.00
11444;BME280;5778;47.856;12.154;2023-02-02T11:24:29;96839.19;;;5.52;100.00
11444;BME280;5778;47.856;12.154;2023-02-02T11:27:03;96834.28;;;5.55;100.00
11444;BME280;5778;47.856;12.154;2023-02-02T11:29:33;96840.59;;;5.48;100.00
11444;BME280;5778;47.856;12.154;2023-02-02T11:32:18;96831.47;;;5.44;100.00
11444;BME280;5778;47.856;12.154;2023-02-02T11:34:46;96823.38;;;5.39;100.00
11444;BME280;5778;47.856;12.154;2023-02-02T11:37:19;96826.25;;;5.37;100.00
11444;BME280;5778;47.856;12.154;2023-02-02T11:39:47;96833.75;;;5.34;100.00
11444;BME280;5778;47.856;12.154;2023-02-02T11:42:16;96837.63;;;5.31;100.00
11444;BME280;5778;47.856;12.154;2023-02-02T11:44:45;96845.94;;;5.28;100.00
11444;BME280;5778;47.856;12.154;2023-02-02T11:47:24;96843.50;;;5.27;100.00
11444;BME280;5778;47.856;12.154;2023-02-02T11:49:53;96881.63;;;5.24;100.00
11444;BME280;5778;47.856;12.154;2023-02-02T11:52:26;96860.75;;;5.23;100.00
11444;BME280;5778;47.856;12.154;2023-02-02T11:54:56;96885.28;;;5.17;100.00
11444;BME280;5778;47.856;12.154;2023-02-02T11:57:25;96856.28;;;5.17;100.00
11444;BME280;5778;47.856;12.154;2023-02-02T12:00:15;96850.63;;;5.20;100.00
11444;BME280;5778;47.856;12.154;2023-02-02T12:02:45;96861.97;;;5.14;100.00
11444;BME280;5778;47.856;12.154;2023-02-02T12:05:31;96853.28;;;5.07;100.00
11444;BME280;5778;47.856;12.154;2023-02-02T12:08:00;96857.13;;;5.04;100.00
11444;BME280;5778;47.856;12.154;2023-02-02T12:10:31;96847.78;;;5.08;100.00
11444;BME280;5778;47.856;12.154;2023-02-02T12:13:06;96851.88;;;5.04;100.00
11444;BME280;5778;47.856;12.154;2023-02-02T12:15:44;96860.56;;;5.05;100.00
11444;BME280;5778;47.856;12.154;2023-02-02T12:18:25;96846.59;;;5.04;100.00
11444;BME280;5778;47.856;12.154;2023-02-02T12:21:00;96849.44;;;5.03;100.00
11444;BME280;5778;47.856;12.154;2023-02-02T12:23:48;96853.09;;;5.02;100.00
11444;BME280;5778;47.856;12.154;2023-02-02T12:26:27;96853.28;;;5.07;100.00
11444;BME280;5778;47.856;12.154;2023-02-02T12:29:20;96875.34;;;5.06;100.00
11444;BME280;5778;47.856;12.154;2023-02-02T12:32:00;96844.34;;;5.08;100.00
11444;BME280;5778;47.856;12.154;2023-02-02T12:34:38;96857.09;;;5.11;100.00
11444;BME280;5778;47.856;12.154;2023-02-02T12:37:12;96876.97;;;5.13;100.00
11444;BME280;5778;47.856;12.154;2023-02-02T12:39:53;96854.66;;;5.16;100.00
11444;BME280;5778;47.856;12.154;2023-02-02T12:42:37;96872.53;;;5.20;100.00
11444;BME280;5778;47.856;12.154;2023-02-02T12:45:21;96870.88;;;5.19;100.00
11444;BME280;5778;47.856;12.154;2023-02-02T12:48:03;96874.94;;;5.22;100.00
11444;BME280;5778;47.856;12.154;2023-02-02T12:50:42;96873.31;;;5.21;100.00
11444;BME280;5778;47.856;12.154;2023-02-02T12:53:29;96898.06;;;5.20;100.00
11444;BME280;5778;47.856;12.154;2023-02-02T12:56:11;96889.56;;;5.18;100.00
11444;BME280;5778;47.856;12.154;2023-02-02T12:58:52;96876.97;;;5.20;100.00
11444;BME280;5778;47.856;12.154;2023-02-02T13:01:29;96865.63;;;5.13;100.00
11444;BME280;5778;47.856;12.154;2023-02-02T13:04:22;96867.84;;;5.16;100.00
11444;BME280;5778;47.856;12.154;2023-02-02T13:07:10;96879.41;;;5.15;100.00
11444;BME280;5778;47.856;12.154;2023-02-02T13:09:43;96875.16;;;5.14;100.00
11444;BME280;5778;47.856;12.154;2023-02-02T13:12:17;96893.41;;;5.09;100.00
11444;BME280;5778;47.856;12.154;2023-02-02T13:14:47;96889.34;;;5.06;100.00
11444;BME280;5778;47.856;12.154;2023-02-02T13:17:20;96892.81;;;5.07;100.00
11444;BME280;5778;47.856;12.154;2023-02-02T13:19:52;96891.78;;;5.01;100.00
11444;BME280;5778;47.856;12.154;2023-02-02T13:22:24;96902.31;;;4.95;100.00
11444;BME280;5778;47.856;12.154;2023-02-02T13:24:56;96891.19;;;4.93;100.00
11444;BME280;5778;47.856;12.154;2023-02-02T13:27:28;96914.91;;;4.93;100.00
11444;BME280;5778;47.856;12.154;2023-02-02T13:30:00;96905.56;;;4.90;100.00
11444;BME280;5778;47.856;12.154;2023-02-02T13:32:31;96920.38;;;4.91;100.00